Time;durP1;ratioP1;P1;durP2;ratioP2;P2;SDS_P1;SDS_P2;PMS_P1;PMS_P2;Temp;Humidity;BMP_temperature;BMP_pressure;BME280_temperature;BME280_humidity;BME280_pressure;Samples;Min_cycle;Max_cycle;Signal;HPM_P1;HPM_P2
2022/03/06 00:02:11;;;;;;;3.45;2.05;;;;;;;3.98;45.39;99774.87;1730634;82;20970;-67
2022/03/06 00:04:38;;;;;;;3.15;2.00;;;;;;;3.97;45.38;99777.60;1742508;80;21263;-65
2022/03/06 00:07:05;;;;;;;3.45;2.17;;;;;;;3.96;45.30;99774.16;1765367;80;20995;-64
2022/03/06 00:09:32;;;;;;;3.83;2.60;;;;;;;3.99;45.26;99775.71;1757721;80;20991;-67
2022/03/06 00:12:01;;;;;;;3.40;2.30;;;;;;;4.00;45.35;99769.47;1750185;80;20955;-65
2022/03/06 00:14:29;;;;;;;2.40;1.80;;;;;;;4.00;45.50;99772.94;1754983;80;20923;-66
2022/03/06 00:16:57;;;;;;;2.62;2.02;;;;;;;3.99;45.68;99764.67;1764849;80;21402;-62
2022/03/06 00:19:24;;;;;;;2.85;1.80;;;;;;;4.01;45.88;99765.41;1768633;80;20983;-63
2022/03/06 00:21:52;;;;;;;3.58;2.10;;;;;;;3.98;45.81;99766.97;1741501;80;21553;-63
2022/03/06 00:24:19;;;;;;;3.92;2.37;;;;;;;3.98;45.93;99764.34;1742426;81;20948;-64
2022/03/06 00:26:47;;;;;;;2.35;1.77;;;;;;;3.97;46.07;99763.13;1746443;82;21016;-64
2022/03/06 00:29:14;;;;;;;2.47;1.60;;;;;;;3.97;46.05;99766.60;1766714;80;21138;-64
2022/03/06 00:31:44;;;;;;;2.80;2.00;;;;;;;3.95;46.05;99770.31;1746702;80;20991;-64
2022/03/06 00:34:12;;;;;;;2.92;1.90;;;;;;;3.94;45.79;99770.78;1741537;80;20982;-63
2022/03/06 00:36:39;;;;;;;2.12;1.77;;;;;;;3.94;45.70;99773.89;1761371;80;21501;-66
2022/03/06 00:39:06;;;;;;;2.95;1.70;;;;;;;3.93;45.71;99774.87;1771789;80;20983;-65
2022/03/06 00:41:34;;;;;;;2.60;1.92;;;;;;;3.95;45.80;99773.79;1761695;80;21240;-66
2022/03/06 00:44:04;;;;;;;2.05;1.50;;;;;;;3.95;45.90;99774.27;1725874;80;21518;-63
2022/03/06 00:46:32;;;;;;;3.05;2.05;;;;;;;3.94;46.08;99772.58;1769950;80;21472;-63
2022/03/06 00:48:59;;;;;;;2.12;1.72;;;;;;;3.93;45.97;99771.77;1760348;80;20905;-62
2022/03/06 00:51:28;;;;;;;2.27;1.75;;;;;;;3.94;46.12;99768.62;1744085;82;21455;-64
2022/03/06 00:53:55;;;;;;;2.72;1.95;;;;;;;3.94;46.16;99773.89;1763472;80;21230;-65
2022/03/06 00:56:22;;;;;;;3.02;2.15;;;;;;;3.93;46.22;99768.29;1759453;80;20937;-66
2022/03/06 00:58:49;;;;;;;3.30;1.65;;;;;;;3.93;46.51;99767.81;1771523;80;20916;-63
2022/03/06 01:01:16;;;;;;;3.58;1.62;;;;;;;3.93;46.38;99769.13;1748776;80;21538;-64
2022/03/06 01:03:44;;;;;;;1.70;1.60;;;;;;;3.93;46.33;99769.61;1745796;80;21433;-65
2022/03/06 01:06:11;;;;;;;1.87;1.60;;;;;;;3.93;46.21;99770.92;1743817;82;21280;-62
2022/03/06 01:08:37;;;;;;;2.60;1.85;;;;;;;3.93;46.29;99766.97;1745615;80;21627;-63
2022/03/06 01:11:05;;;;;;;2.10;1.80;;;;;;;3.92;46.43;99770.08;1729065;82;20936;-64
2022/03/06 01:13:34;;;;;;;1.45;1.35;;;;;;;3.90;46.43;99769.38;1725009;81;21086;-66
2022/03/06 01:16:01;;;;;;;1.55;1.30;;;;;;;3.89;46.41;99768.16;1751447;80;20978;-62
2022/03/06 01:18:28;;;;;;;2.08;1.32;;;;;;;3.87;46.04;99773.55;1769913;80;21295;-64
2022/03/06 01:20:57;;;;;;;1.65;1.40;;;;;;;3.86;45.85;99768.42;1771983;80;21426;-65
2022/03/06 01:23:24;;;;;;;3.02;1.60;;;;;;;3.87;45.82;99764.81;1747386;80;21058;-62
2022/03/06 01:25:51;;;;;;;1.80;1.20;;;;;;;3.85;45.69;99761.48;1720595;82;20991;-65
2022/03/06 01:28:18;;;;;;;1.65;1.37;;;;;;;3.85;45.21;99757.05;1722752;82;21489;-61
2022/03/06 01:30:46;;;;;;;1.50;1.40;;;;;;;3.86;45.31;99758.70;1733585;82;21234;-67
2022/03/06 01:33:14;;;;;;;2.22;1.60;;;;;;;3.88;45.56;99755.97;1691998;83;20960;-65
2022/03/06 01:35:41;;;;;;;4.03;1.62;;;;;;;3.89;45.49;99755.00;1697044;83;20979;-65
2022/03/06 01:38:09;;;;;;;3.45;1.72;;;;;;;3.86;45.15;99753.45;1700544;83;21506;-65
2022/03/06 01:40:36;;;;;;;2.10;1.50;;;;;;;3.86;45.00;99756.08;1698545;83;21017;-66
2022/03/06 01:43:03;;;;;;;1.80;1.45;;;;;;;3.87;44.89;99752.50;1668020;84;21257;-64
2022/03/06 01:45:30;;;;;;;1.87;1.35;;;;;;;3.88;44.81;99755.97;1714116;82;21078;-61
2022/03/06 01:48:01;;;;;;;1.82;1.45;;;;;;;3.87;44.74;99763.03;1763859;80;21420;-63
2022/03/06 01:50:35;;;;;;;1.45;1.27;;;;;;;3.89;44.68;99761.58;1770113;80;21453;-65
2022/03/06 01:53:06;;;;;;;1.80;1.60;;;;;;;3.87;44.63;99756.92;1754262;80;21114;-66
2022/03/06 01:55:33;;;;;;;1.50;1.40;;;;;;;3.86;44.60;99754.76;1744561;80;21267;-67
2022/03/06 01:58:04;;;;;;;1.25;1.15;;;;;;;3.87;44.72;99754.29;1753651;80;21030;-66
2022/03/06 02:00:45;;;;;;;1.90;1.40;;;;;;;3.88;44.65;99755.97;1769610;80;21548;-64
2022/03/06 02:03:14;;;;;;;2.22;1.52;;;;;;;3.87;44.63;99754.29;1770504;80;21033;-63
2022/03/06 02:05:42;;;;;;;1.92;1.50;;;;;;;3.89;44.62;99756.31;1755789;80;20988;-67
2022/03/06 02:08:09;;;;;;;2.72;1.60;;;;;;;3.87;44.65;99758.23;1755752;80;21414;-64
2022/03/06 02:10:36;;;;;;;3.40;1.55;;;;;;;3.87;44.82;99761.71;1769611;80;20893;-65
2022/03/06 02:13:04;;;;;;;2.52;1.75;;;;;;;3.87;45.02;99752.97;1766475;80;20931;-65
2022/03/06 02:15:32;;;;;;;2.95;1.98;;;;;;;3.86;45.15;99756.58;1744019;81;20904;-62
2022/03/06 02:17:59;;;;;;;2.72;1.65;;;;;;;3.86;45.24;99753.95;1724663;82;20992;-65
2022/03/06 02:20:26;;;;;;;2.15;1.80;;;;;;;3.88;45.18;99755.97;1729061;81;21852;-64
2022/03/06 02:22:56;;;;;;;1.65;1.52;;;;;;;3.87;45.25;99756.45;1745917;81;21598;-65
2022/03/06 02:25:32;;;;;;;1.57;1.47;;;;;;;3.87;45.24;99755.13;1748915;81;20983;-64
2022/03/06 02:28:02;;;;;;;2.77;2.15;;;;;;;3.88;45.27;99759.45;1721181;81;20948;-65
2022/03/06 02:30:32;;;;;;;2.30;1.80;;;;;;;3.86;45.36;99757.89;1733578;81;21423;-64
2022/03/06 02:33:02;;;;;;;2.65;2.05;;;;;;;3.84;45.51;99755.84;1731619;81;21406;-63
2022/03/06 02:35:29;;;;;;;3.50;2.08;;;;;;;3.85;45.50;99749.63;1735898;81;20944;-65
2022/03/06 02:37:56;;;;;;;2.40;2.20;;;;;;;3.85;45.40;99754.89;1744735;81;20878;-62
2022/03/06 02:40:23;;;;;;;2.10;1.98;;;;;;;3.83;45.64;99755.50;1756561;81;20944;-62
2022/03/06 02:42:51;;;;;;;2.00;1.60;;;;;;;3.83;45.74;99751.55;1751930;81;21432;-66
2022/03/06 02:45:23;;;;;;;2.47;1.85;;;;;;;3.82;45.81;99757.30;1729405;81;21250;-63
2022/03/06 02:47:50;;;;;;;2.37;1.50;;;;;;;3.82;45.83;99755.13;1738038;81;20856;-67
2022/03/06 02:50:21;;;;;;;1.47;1.30;;;;;;;3.82;45.77;99752.03;1730480;81;21084;-67
2022/03/06 02:52:49;;;;;;;1.87;1.70;;;;;;;3.82;45.71;99749.87;1741422;81;20913;-61
2022/03/06 02:55:16;;;;;;;2.30;1.60;;;;;;;3.81;45.79;99752.16;1731510;81;20999;-64
2022/03/06 02:57:44;;;;;;;1.40;1.30;;;;;;;3.79;45.81;99747.47;1731253;81;21303;-64
2022/03/06 03:00:14;;;;;;;3.10;1.40;;;;;;;3.79;45.77;99750.11;1713633;81;20919;-67
2022/03/06 03:02:41;;;;;;;2.08;1.52;;;;;;;3.78;45.78;99750.58;1735525;81;21011;-62
2022/03/06 03:05:10;;;;;;;1.62;1.35;;;;;;;3.79;45.87;99749.63;1754825;81;20897;-67
2022/03/06 03:07:40;;;;;;;1.50;1.40;;;;;;;3.79;45.78;99749.63;1681430;85;21483;-64
2022/03/06 03:10:10;;;;;;;2.85;1.32;;;;;;;3.80;45.61;99751.80;1758695;81;21885;-64
2022/03/06 03:12:38;;;;;;;1.55;1.45;;;;;;;3.82;45.48;99755.98;1735638;81;21566;-62
2022/03/06 03:15:06;;;;;;;1.98;1.52;;;;;;;3.83;45.32;99755.50;1751597;81;21469;-64
2022/03/06 03:17:33;;;;;;;3.17;1.65;;;;;;;3.82;45.19;99746.77;1744919;81;20944;-62
2022/03/06 03:20:02;;;;;;;2.37;1.70;;;;;;;3.81;45.12;99753.48;1758706;81;20982;-61
2022/03/06 03:22:29;;;;;;;1.40;1.30;;;;;;;3.81;45.22;99749.53;1762619;81;21352;-66
2022/03/06 03:24:56;;;;;;;1.50;1.40;;;;;;;3.80;45.17;99749.16;1739149;81;21432;-65
2022/03/06 03:27:24;;;;;;;1.52;1.32;;;;;;;3.82;45.31;99757.30;1748794;81;21458;-62
2022/03/06 03:29:51;;;;;;;2.22;1.70;;;;;;;3.83;45.33;99756.82;1765845;80;20866;-61
2022/03/06 03:32:18;;;;;;;2.42;1.70;;;;;;;3.80;45.33;99752.64;1765790;80;20978;-62
2022/03/06 03:34:45;;;;;;;1.95;1.75;;;;;;;3.80;45.25;99757.05;1762310;81;22378;-63
2022/03/06 03:37:12;;;;;;;2.27;2.02;;;;;;;3.78;45.18;99755.84;1750769;81;20972;-65
2022/03/06 03:39:39;;;;;;;1.90;1.72;;;;;;;3.79;45.25;99756.21;1739330;82;21011;-65
2022/03/06 03:42:07;;;;;;;2.02;1.75;;;;;;;3.80;45.31;99757.05;1749541;81;21004;-65
2022/03/06 03:44:35;;;;;;;2.02;1.67;;;;;;;3.80;45.28;99763.16;1765177;80;21561;-66
2022/03/06 03:47:03;;;;;;;1.98;1.67;;;;;;;3.78;45.45;99758.47;1742844;80;21264;-65
2022/03/06 03:49:30;;;;;;;2.40;1.92;;;;;;;3.77;45.55;99762.55;1750346;81;20996;-61
2022/03/06 03:51:57;;;;;;;3.00;2.45;;;;;;;3.76;45.49;99756.45;1714430;81;20857;-63
2022/03/06 03:54:24;;;;;;;2.12;1.80;;;;;;;3.77;45.52;99754.66;1750580;81;21498;-66
2022/03/06 03:56:53;;;;;;;2.67;2.37;;;;;;;3.75;45.59;99757.42;1746171;81;21011;-63
2022/03/06 03:59:20;;;;;;;2.45;2.25;;;;;;;3.73;45.69;99756.21;1753715;81;21886;-64
2022/03/06 04:01:51;;;;;;;3.35;1.80;;;;;;;3.72;45.77;99755.03;1745459;81;20980;-68
2022/03/06 04:04:18;;;;;;;2.40;1.92;;;;;;;3.72;45.87;99751.92;1743208;81;21012;-61
2022/03/06 04:06:45;;;;;;;2.12;1.92;;;;;;;3.71;45.85;99755.97;1739554;81;21001;-66
2022/03/06 04:09:13;;;;;;;3.33;2.00;;;;;;;3.70;45.97;99755.63;1738923;82;20989;-64
2022/03/06 04:11:40;;;;;;;2.33;2.10;;;;;;;3.70;46.01;99761.71;1739685;82;21253;-64
2022/03/06 04:14:07;;;;;;;2.25;1.85;;;;;;;3.69;46.05;99757.42;1737941;82;20988;-62
2022/03/06 04:16:34;;;;;;;1.75;1.65;;;;;;;3.71;46.24;99755.97;1717723;82;20938;-66
2022/03/06 04:19:01;;;;;;;1.87;1.47;;;;;;;3.69;46.32;99750.84;1724395;82;20934;-64
2022/03/06 04:21:28;;;;;;;1.67;1.37;;;;;;;3.68;46.34;99754.42;1733492;82;20928;-64
2022/03/06 04:23:55;;;;;;;1.82;1.70;;;;;;;3.69;46.25;99753.48;1735498;82;21245;-65
2022/03/06 04:26:22;;;;;;;2.58;1.70;;;;;;;3.68;46.15;99754.42;1724221;82;20942;-68
2022/03/06 04:28:50;;;;;;;1.67;1.20;;;;;;;3.70;46.06;99755.13;1720763;82;21444;-63
2022/03/06 04:31:17;;;;;;;1.65;1.27;;;;;;;3.70;46.07;99751.19;1719654;82;21011;-65
2022/03/06 04:33:44;;;;;;;1.80;1.22;;;;;;;3.72;46.01;99753.72;1720115;82;20941;-66
2022/03/06 04:36:11;;;;;;;1.32;1.20;;;;;;;3.70;46.11;99752.50;1727777;82;21218;-65
2022/03/06 04:38:41;;;;;;;1.57;1.20;;;;;;;3.68;46.18;99751.79;1727272;82;21060;-65
2022/03/06 04:41:08;;;;;;;1.92;1.22;;;;;;;3.69;46.34;99753.95;1729289;82;20933;-67
2022/03/06 04:43:35;;;;;;;2.22;1.30;;;;;;;3.69;46.47;99750.84;1735351;82;20948;-62
2022/03/06 04:46:03;;;;;;;1.57;1.22;;;;;;;3.69;46.52;99757.89;1722046;82;21003;-63
2022/03/06 04:48:31;;;;;;;1.80;1.35;;;;;;;3.70;46.65;99760.90;1725919;82;21248;-65
2022/03/06 04:50:59;;;;;;;2.55;1.80;;;;;;;3.68;46.67;99757.05;1733710;82;20942;-64
2022/03/06 04:53:26;;;;;;;1.72;1.02;;;;;;;3.66;46.68;99756.34;1732995;82;21053;-62
2022/03/06 04:55:53;;;;;;;1.75;1.50;;;;;;;3.68;46.74;99763.63;1729124;82;20997;-62
2022/03/06 04:58:20;;;;;;;1.85;1.37;;;;;;;3.69;46.69;99765.79;1731510;82;20997;-64
2022/03/06 05:00:47;;;;;;;1.65;1.40;;;;;;;3.68;46.68;99761.47;1731435;82;21169;-63
2022/03/06 05:03:16;;;;;;;2.10;1.47;;;;;;;3.68;46.85;99759.69;1730257;82;21043;-64
2022/03/06 05:05:44;;;;;;;3.10;1.50;;;;;;;3.70;47.06;99761.71;1705173;82;21560;-66
2022/03/06 05:08:10;;;;;;;5.10;1.55;;;;;;;3.68;47.02;99762.78;1734606;82;20953;-63
2022/03/06 05:10:39;;;;;;;9.43;2.55;;;;;;;3.69;47.06;99765.31;1732586;82;20977;-63
2022/03/06 05:13:07;;;;;;;3.77;1.60;;;;;;;3.71;47.07;99762.55;1736682;82;21308;-66
2022/03/06 05:15:34;;;;;;;3.35;1.70;;;;;;;3.70;47.16;99764.34;1749536;81;20990;-61
2022/03/06 05:18:02;;;;;;;2.42;1.90;;;;;;;3.69;47.06;99756.58;1752655;81;20971;-68
2022/03/06 05:20:31;;;;;;;1.52;1.20;;;;;;;3.69;46.94;99757.42;1747098;81;21073;-65
2022/03/06 05:22:58;;;;;;;2.98;1.80;;;;;;;3.70;46.77;99754.32;1743786;81;20887;-62
2022/03/06 05:25:24;;;;;;;2.12;1.92;;;;;;;3.71;46.52;99760.77;1756068;81;21243;-62
2022/03/06 05:27:51;;;;;;;2.83;2.37;;;;;;;3.73;46.38;99758.84;1759158;81;21587;-65
2022/03/06 05:30:18;;;;;;;4.28;3.30;;;;;;;3.75;46.34;99760.87;1754037;81;21060;-64
2022/03/06 05:32:45;;;;;;;5.37;3.00;;;;;;;3.77;46.54;99762.08;1740159;81;20986;-62
2022/03/06 05:35:13;;;;;;;3.40;2.65;;;;;;;3.81;46.39;99758.74;1754012;81;21048;-65
2022/03/06 05:37:40;;;;;;;3.90;2.67;;;;;;;3.83;46.27;99756.82;1757347;81;21246;-64
2022/03/06 05:40:08;;;;;;;5.03;2.35;;;;;;;3.85;46.30;99761.48;1737846;81;21630;-65
2022/03/06 05:42:35;;;;;;;3.05;2.27;;;;;;;3.88;46.12;99763.88;1732199;81;20915;-65
2022/03/06 05:45:04;;;;;;;2.77;2.17;;;;;;;3.91;46.04;99757.05;1743843;81;21019;-65
2022/03/06 05:47:31;;;;;;;1.95;1.62;;;;;;;3.95;46.11;99761.95;1731963;81;20967;-65
2022/03/06 05:49:58;;;;;;;2.83;1.60;;;;;;;3.99;45.93;99761.23;1750232;81;21241;-63
2022/03/06 05:52:25;;;;;;;2.08;1.40;;;;;;;4.04;45.70;99757.75;1741327;81;21016;-62
2022/03/06 05:54:53;;;;;;;3.15;1.82;;;;;;;4.06;45.38;99751.88;1758864;81;21517;-64
2022/03/06 05:57:20;;;;;;;2.85;2.05;;;;;;;4.07;45.12;99750.42;1741693;81;21055;-64
2022/03/06 05:59:47;;;;;;;2.52;1.72;;;;;;;4.09;44.92;99756.39;1740008;81;20998;-66
2022/03/06 06:02:14;;;;;;;2.20;1.50;;;;;;;4.07;44.68;99747.80;1735077;82;21848;-64
2022/03/06 06:04:43;;;;;;;2.98;1.52;;;;;;;4.07;44.61;99751.73;1700841;83;21077;-65
2022/03/06 06:07:10;;;;;;;2.65;1.90;;;;;;;4.09;44.59;99751.13;1725212;81;21042;-68
2022/03/06 06:09:37;;;;;;;2.12;1.92;;;;;;;4.11;44.35;99754.50;1743450;81;20884;-61
2022/03/06 06:12:07;;;;;;;1.92;1.30;;;;;;;4.12;44.00;99757.47;1745212;81;21060;-69
2022/03/06 06:14:34;;;;;;;1.90;1.42;;;;;;;4.15;43.92;99756.39;1747003;81;21133;-63
2022/03/06 06:17:03;;;;;;;3.15;1.60;;;;;;;4.18;43.67;99756.15;1698420;82;20938;-65
2022/03/06 06:19:32;;;;;;;5.62;1.87;;;;;;;4.21;43.47;99755.44;1731189;81;20939;-61
2022/03/06 06:21:59;;;;;;;2.77;1.52;;;;;;;4.25;43.38;99756.84;1732093;82;20949;-63
2022/03/06 06:24:26;;;;;;;1.92;1.32;;;;;;;4.32;43.33;99758.52;1735119;82;21535;-65
2022/03/06 06:26:55;;;;;;;3.52;1.40;;;;;;;4.36;43.23;99759.94;1711062;81;21556;-61
2022/03/06 06:29:23;;;;;;;1.45;1.32;;;;;;;4.38;43.24;99757.53;1717852;81;21409;-61
2022/03/06 06:31:51;;;;;;;3.83;1.60;;;;;;;4.41;43.20;99757.76;1736620;80;21089;-61
2022/03/06 06:34:20;;;;;;;2.02;1.27;;;;;;;4.39;43.19;99767.59;1732686;80;21010;-65
2022/03/06 06:36:49;;;;;;;2.02;1.80;;;;;;;4.42;43.15;99755.97;1728997;80;21631;-62
2022/03/06 06:39:16;;;;;;;5.33;3.95;;;;;;;4.45;43.02;99760.99;1709161;82;21504;-61
2022/03/06 06:41:45;;;;;;;4.08;3.17;;;;;;;4.46;42.89;99760.05;1719978;81;21666;-63
2022/03/06 06:44:12;;;;;;;4.15;2.17;;;;;;;4.52;42.77;99758.20;1734967;80;21014;-63
2022/03/06 06:46:39;;;;;;;2.60;2.00;;;;;;;4.61;42.69;99761.42;1732216;81;20979;-62
2022/03/06 06:49:06;;;;;;;3.27;1.55;;;;;;;4.67;42.43;99754.30;1732041;82;20988;-63
2022/03/06 06:51:36;;;;;;;2.05;1.35;;;;;;;4.72;42.22;99756.92;1729566;80;20956;-62
2022/03/06 06:54:03;;;;;;;1.62;1.25;;;;;;;4.79;42.05;99757.27;1728851;80;20910;-65
2022/03/06 06:56:30;;;;;;;5.53;2.10;;;;;;;4.84;41.92;99755.08;1732522;80;21073;-63
2022/03/06 06:58:58;;;;;;;3.27;1.45;;;;;;;4.87;41.72;99766.70;1730293;80;20927;-66
2022/03/06 07:01:26;;;;;;;2.00;1.70;;;;;;;4.88;41.55;99765.23;1733051;80;20931;-67
2022/03/06 07:03:53;;;;;;;2.22;1.82;;;;;;;4.89;41.38;99765.61;1734596;80;21065;-63
2022/03/06 07:06:21;;;;;;;4.05;2.58;;;;;;;4.89;41.42;99761.65;1733860;80;21393;-64
2022/03/06 07:08:49;;;;;;;2.87;2.20;;;;;;;4.88;41.46;99761.28;1729801;80;20955;-66
2022/03/06 07:11:16;;;;;;;3.87;2.95;;;;;;;4.89;41.21;99759.02;1731437;80;21520;-64
2022/03/06 07:13:43;;;;;;;5.53;2.45;;;;;;;4.95;40.52;99768.22;1710202;82;21063;-65
2022/03/06 07:16:10;;;;;;;2.60;2.40;;;;;;;5.04;39.92;99767.91;1742794;80;21258;-64
2022/03/06 07:18:37;;;;;;;5.42;2.27;;;;;;;5.07;39.65;99768.50;1721712;80;21066;-64
2022/03/06 07:21:04;;;;;;;3.50;2.08;;;;;;;5.09;39.61;99765.25;1734730;80;20947;-64
2022/03/06 07:23:31;;;;;;;2.95;2.05;;;;;;;5.11;39.71;99764.63;1739629;80;20966;-62
2022/03/06 07:25:58;;;;;;;1.60;1.50;;;;;;;5.19;39.86;99767.97;1731441;80;20900;-61
2022/03/06 07:28:25;;;;;;;2.37;1.52;;;;;;;5.28;39.94;99765.37;1734965;81;21264;-64
2022/03/06 07:30:53;;;;;;;1.45;1.27;;;;;;;5.39;39.96;99760.03;1740122;81;21109;-64
2022/03/06 07:33:20;;;;;;;3.77;1.00;;;;;;;5.49;39.54;99760.91;1694002;84;21007;-66
2022/03/06 07:35:47;;;;;;;1.55;1.20;;;;;;;5.56;39.40;99762.53;1732763;81;20982;-69
2022/03/06 07:38:15;;;;;;;3.20;1.32;;;;;;;5.63;39.28;99761.53;1723921;82;21007;-63
2022/03/06 07:40:42;;;;;;;2.27;1.12;;;;;;;5.64;38.85;99761.39;1725955;82;21815;-66
2022/03/06 07:43:10;;;;;;;3.62;1.07;;;;;;;5.67;38.76;99762.45;1710311;81;20967;-62
2022/03/06 07:45:37;;;;;;;1.75;1.65;;;;;;;5.67;38.71;99761.61;1708978;83;21034;-63
2022/03/06 07:48:07;;;;;;;1.10;1.00;;;;;;;5.69;38.68;99764.47;1711988;80;20987;-63
2022/03/06 07:50:34;;;;;;;3.12;1.55;;;;;;;5.74;38.28;99762.73;1724885;80;21026;-62
2022/03/06 07:53:01;;;;;;;1.65;1.40;;;;;;;5.79;38.11;99765.84;1733363;80;21266;-62
2022/03/06 07:55:28;;;;;;;1.05;0.95;;;;;;;5.82;38.07;99758.95;1732699;80;20884;-64
2022/03/06 07:57:56;;;;;;;1.75;1.10;;;;;;;5.87;37.71;99764.22;1733158;81;21483;-62
2022/03/06 08:00:23;;;;;;;1.47;1.12;;;;;;;5.93;37.24;99752.30;1736625;80;20977;-65
2022/03/06 08:02:50;;;;;;;1.20;0.93;;;;;;;5.95;36.83;99752.98;1729178;80;21018;-63
2022/03/06 08:05:17;;;;;;;1.17;1.00;;;;;;;6.02;36.77;99754.95;1744078;80;21232;-65
2022/03/06 08:07:45;;;;;;;3.20;1.27;;;;;;;6.06;36.64;99755.05;1739042;80;21017;-62
2022/03/06 08:10:12;;;;;;;1.20;1.10;;;;;;;6.08;36.59;99747.81;1732594;80;21532;-62
2022/03/06 08:12:41;;;;;;;1.32;1.15;;;;;;;6.12;36.40;99747.07;1724647;81;20983;-62
2022/03/06 08:15:09;;;;;;;1.70;1.42;;;;;;;6.17;36.44;99747.50;1722407;81;21486;-62
2022/03/06 08:17:37;;;;;;;3.10;1.57;;;;;;;6.25;36.33;99750.30;1754804;81;21145;-63
2022/03/06 08:20:06;;;;;;;1.72;1.05;;;;;;;6.25;36.17;99749.45;1755641;81;20995;-63
2022/03/06 08:22:35;;;;;;;1.37;1.27;;;;;;;6.26;36.04;99749.82;1755654;81;20919;-65
2022/03/06 08:25:02;;;;;;;5.20;1.27;;;;;;;6.30;35.61;99744.12;1756347;81;21026;-65
2022/03/06 08:27:32;;;;;;;2.10;1.47;;;;;;;6.30;35.60;99744.59;1743321;81;21077;-64
2022/03/06 08:29:59;;;;;;;2.80;1.20;;;;;;;6.33;35.25;99743.85;1738440;81;21248;-63
2022/03/06 08:32:27;;;;;;;4.00;1.50;;;;;;;6.31;35.12;99744.45;1736309;82;20888;-65
2022/03/06 08:34:55;;;;;;;3.10;2.12;;;;;;;6.30;35.17;99733.55;1743819;81;20982;-63
2022/03/06 08:37:22;;;;;;;2.70;2.02;;;;;;;6.31;35.15;99736.52;1723865;81;20962;-63
2022/03/06 08:39:50;;;;;;;3.45;1.70;;;;;;;6.31;34.82;99743.13;1730440;81;21492;-64
2022/03/06 08:42:17;;;;;;;1.80;1.25;;;;;;;6.31;34.54;99739.67;1740613;81;21261;-64
2022/03/06 08:44:45;;;;;;;2.27;1.40;;;;;;;6.33;34.37;99735.92;1738491;82;21011;-65
2022/03/06 08:47:12;;;;;;;1.87;1.20;;;;;;;6.35;34.20;99737.94;1737321;82;20958;-61
2022/03/06 08:49:39;;;;;;;2.02;1.80;;;;;;;6.32;33.80;99740.84;1742515;81;21525;-62
2022/03/06 08:52:07;;;;;;;2.67;2.08;;;;;;;6.31;33.69;99733.07;1757121;81;21056;-65
2022/03/06 08:54:34;;;;;;;1.50;1.40;;;;;;;6.30;33.83;99732.70;1744047;82;21188;-65
2022/03/06 08:57:02;;;;;;;1.42;1.32;;;;;;;6.34;33.69;99738.05;1737062;82;20880;-61
2022/03/06 08:59:29;;;;;;;1.65;1.40;;;;;;;6.33;33.39;99735.08;1753849;81;20892;-63
2022/03/06 09:01:57;;;;;;;2.95;2.47;;;;;;;6.34;33.32;99727.00;1742823;81;20939;-66
2022/03/06 09:04:26;;;;;;;3.83;2.67;;;;;;;6.35;33.23;99722.56;1747355;81;21051;-61
2022/03/06 09:06:53;;;;;;;1.90;1.67;;;;;;;6.34;33.29;99735.41;1728903;82;21279;-64
2022/03/06 09:09:20;;;;;;;2.15;1.70;;;;;;;6.36;33.55;99736.94;1736877;81;21504;-63
2022/03/06 09:11:48;;;;;;;1.42;1.32;;;;;;;6.41;33.69;99729.95;1752535;81;21035;-62
2022/03/06 09:14:15;;;;;;;1.70;1.40;;;;;;;6.41;33.83;99732.59;1746321;81;21104;-63
2022/03/06 09:16:42;;;;;;;1.10;1.00;;;;;;;6.44;33.60;99730.48;1754901;80;21592;-64
2022/03/06 09:19:10;;;;;;;1.35;1.10;;;;;;;6.41;33.42;99730.79;1748802;80;21917;-64
2022/03/06 09:21:38;;;;;;;1.98;1.50;;;;;;;6.44;33.54;99735.77;1753525;80;20994;-66
2022/03/06 09:24:08;;;;;;;1.72;1.40;;;;;;;6.48;33.62;99735.02;1752221;80;21474;-65
2022/03/06 09:26:36;;;;;;;1.37;1.27;;;;;;;6.50;33.59;99734.39;1752310;80;20992;-63
2022/03/06 09:29:07;;;;;;;2.02;1.45;;;;;;;6.48;33.75;99727.94;1769368;80;20999;-62
2022/03/06 09:31:34;;;;;;;2.10;1.90;;;;;;;6.54;33.90;99730.52;1754444;80;21152;-63
2022/03/06 09:34:01;;;;;;;1.85;1.60;;;;;;;6.56;33.74;99721.95;1755848;80;21461;-62
2022/03/06 09:36:29;;;;;;;6.30;1.60;;;;;;;6.58;33.74;99722.64;1752355;80;20951;-62
2022/03/06 09:38:56;;;;;;;4.08;1.20;;;;;;;6.60;33.55;99720.69;1741589;80;20947;-62
2022/03/06 09:41:28;;;;;;;2.10;1.27;;;;;;;6.58;33.52;99714.71;1753710;80;21583;-65
2022/03/06 09:43:56;;;;;;;3.15;1.95;;;;;;;6.57;33.55;99716.52;1735310;80;21260;-62
2022/03/06 09:46:24;;;;;;;1.52;1.42;;;;;;;6.63;33.59;99717.77;1738752;80;21523;-62
2022/03/06 09:48:54;;;;;;;1.05;0.95;;;;;;;6.69;33.42;99714.09;1749527;80;20948;-65
2022/03/06 09:51:21;;;;;;;1.40;1.20;;;;;;;6.72;32.94;99715.62;1746167;80;21101;-61
2022/03/06 09:53:50;;;;;;;1.02;0.98;;;;;;;6.68;32.67;99714.22;1754136;80;20991;-63
2022/03/06 09:56:18;;;;;;;1.25;1.05;;;;;;;6.66;32.50;99714.84;1758782;80;21263;-64
2022/03/06 09:58:45;;;;;;;2.55;1.00;;;;;;;6.67;32.54;99709.92;1701993;84;21107;-60
2022/03/06 10:01:12;;;;;;;1.20;1.10;;;;;;;6.70;32.68;99710.97;1697483;82;20917;-62
2022/03/06 10:03:39;;;;;;;1.40;1.30;;;;;;;6.75;32.73;99714.02;1749168;81;20951;-62
2022/03/06 10:06:07;;;;;;;1.25;1.02;;;;;;;6.77;32.68;99716.88;1744071;81;21075;-61
2022/03/06 10:08:35;;;;;;;1.62;1.20;;;;;;;6.79;32.61;99718.05;1749849;81;21251;-61
2022/03/06 10:11:11;;;;;;;2.12;1.70;;;;;;;6.80;32.67;99709.14;1740655;81;21599;-62
2022/03/06 10:13:43;;;;;;;2.10;1.55;;;;;;;6.83;32.58;99708.84;1749329;80;21007;-62
2022/03/06 10:16:18;;;;;;;3.45;1.25;;;;;;;6.85;32.44;99710.87;1754196;80;21012;-60
2022/03/06 10:18:51;;;;;;;3.90;1.00;;;;;;;6.81;32.40;99707.67;1753580;80;21011;-62
2022/03/06 10:21:28;;;;;;;1.77;0.90;;;;;;;6.69;32.13;99706.64;1754773;80;22711;-64
2022/03/06 10:24:01;;;;;;;1.00;0.80;;;;;;;6.62;32.04;99702.90;1771363;80;21058;-62
2022/03/06 10:26:30;;;;;;;2.20;1.07;;;;;;;6.52;32.00;99694.95;1749301;80;21004;-63
2022/03/06 10:29:01;;;;;;;1.00;1.00;;;;;;;6.50;32.04;99694.74;1750199;80;21497;-62
2022/03/06 10:31:30;;;;;;;1.57;0.95;;;;;;;6.52;32.08;99697.59;1755991;80;21003;-63
2022/03/06 10:34:07;;;;;;;1.98;1.02;;;;;;;6.55;32.32;99693.84;1755366;80;21339;-62
2022/03/06 10:36:41;;;;;;;5.50;0.90;;;;;;;6.60;32.21;99696.89;1751361;80;21520;-61
2022/03/06 10:39:21;;;;;;;1.55;0.80;;;;;;;6.60;32.03;99698.21;1730203;81;20943;-59
2022/03/06 10:41:49;;;;;;;;;;;;;;;6.61;32.06;99694.13;1750532;80;21493;-61
2022/03/06 10:44:18;;;;;;;1.07;0.80;;;;;;;6.66;32.08;99689.25;1760184;80;20163;-61
2022/03/06 10:47:03;;;;;;;1.32;0.88;;;;;;;6.70;32.05;99687.17;1764671;80;21265;-64
2022/03/06 10:49:30;;;;;;;0.93;0.72;;;;;;;6.69;31.90;99689.45;1757194;80;20900;-63
2022/03/06 10:51:57;;;;;;;1.87;0.90;;;;;;;6.64;31.80;99687.72;1768382;80;21504;-61
2022/03/06 10:54:25;;;;;;;1.82;1.37;;;;;;;6.58;31.91;99679.86;1761415;80;20943;-61
2022/03/06 10:57:01;;;;;;;2.92;1.07;;;;;;;6.60;32.11;99676.58;1771156;80;20892;-61
2022/03/06 10:59:29;;;;;;;3.72;2.12;;;;;;;6.66;32.33;99667.27;1768297;80;21162;-61
2022/03/06 11:01:57;;;;;;;2.42;1.55;;;;;;;6.77;32.42;99657.86;1771142;80;21000;-63
2022/03/06 11:04:23;;;;;;;2.87;1.20;;;;;;;6.87;32.21;99658.67;1769725;80;21069;-62
2022/03/06 11:06:52;;;;;;;1.60;1.32;;;;;;;6.94;32.13;99656.28;1771576;80;20915;-62
2022/03/06 11:09:20;;;;;;;1.30;1.20;;;;;;;6.99;31.92;99657.52;1769737;80;20999;-61
2022/03/06 11:11:52;;;;;;;5.45;1.40;;;;;;;7.03;31.96;99656.27;1760542;80;20959;-62
2022/03/06 11:14:19;;;;;;;1.95;1.30;;;;;;;7.11;31.99;99647.62;1752702;80;21599;-62
2022/03/06 11:16:46;;;;;;;2.12;1.35;;;;;;;7.12;31.66;99644.81;1757223;80;21058;-62
2022/03/06 11:19:13;;;;;;;1.47;1.10;;;;;;;7.11;31.75;99650.27;1758392;80;20971;-61
2022/03/06 11:21:45;;;;;;;2.17;1.00;;;;;;;7.13;31.94;99645.17;1771046;80;20947;-61
2022/03/06 11:24:28;;;;;;;3.25;1.45;;;;;;;7.23;31.99;99644.64;1770924;80;21224;-61
2022/03/06 11:27:25;;;;;;;2.98;1.30;;;;;;;7.29;31.94;99641.42;1766069;80;21002;-61
2022/03/06 11:30:00;;;;;;;1.55;1.30;;;;;;;7.26;31.57;99646.16;1762369;80;21085;-61
2022/03/06 11:32:31;;;;;;;0.90;0.88;;;;;;;7.18;31.37;99641.59;1756443;80;21019;-61
2022/03/06 11:35:09;;;;;;;3.10;0.93;;;;;;;7.12;31.35;99634.71;1733694;80;20935;-61
2022/03/06 11:37:55;;;;;;;2.12;1.40;;;;;;;7.08;31.31;99634.19;1765809;80;21281;-61
2022/03/06 11:40:48;;;;;;;2.23;1.23;;;;;;;7.10;31.58;99635.35;1766899;80;20966;-63
2022/03/06 11:43:47;;;;;;;1.30;1.20;;;;;;;7.17;31.64;99637.27;1732219;80;21169;-63
2022/03/06 11:46:23;;;;;;;1.65;1.22;;;;;;;7.20;31.48;99629.53;1755934;80;20966;-62
2022/03/06 11:48:59;;;;;;;1.80;1.25;;;;;;;7.19;31.29;99630.05;1690013;84;20980;-61